createdAt,value
2017-08-23T00:01:06.971Z,7.20
2017-08-23T00:03:34.475Z,6.63
2017-08-23T00:06:01.983Z,6.70
2017-08-23T00:08:29.462Z,6.40
2017-08-23T00:10:56.974Z,6.97
2017-08-23T00:13:24.451Z,6.60
2017-08-23T00:15:53.909Z,6.90
2017-08-23T00:18:21.414Z,6.97
2017-08-23T00:20:48.899Z,6.73
2017-08-23T00:23:16.375Z,6.50
2017-08-23T00:25:43.874Z,7.03
2017-08-23T00:28:11.351Z,7.80
2017-08-23T00:30:38.857Z,6.97
2017-08-23T00:33:06.338Z,8.03
2017-08-23T00:35:33.838Z,7.50
2017-08-23T00:38:01.306Z,7.43
2017-08-23T00:40:29.730Z,6.40
2017-08-23T00:42:57.226Z,7.13
2017-08-23T00:45:24.706Z,6.37
2017-08-23T00:47:52.212Z,6.50
2017-08-23T00:50:19.764Z,6.60
2017-08-23T00:52:47.266Z,7.60
2017-08-23T00:55:14.746Z,7.03
2017-08-23T00:57:44.183Z,6.97
2017-08-23T01:00:11.663Z,6.73
2017-08-23T01:02:39.154Z,7.57
2017-08-23T01:05:06.640Z,6.97
2017-08-23T01:07:34.128Z,6.70
2017-08-23T01:10:01.607Z,6.57
2017-08-23T01:12:30.091Z,6.53
2017-08-23T01:14:58.480Z,6.60
2017-08-23T01:17:25.975Z,6.70
2017-08-23T01:19:54.396Z,6.90
2017-08-23T01:22:22.818Z,7.50
2017-08-23T01:24:50.305Z,7.00
2017-08-23T01:27:17.799Z,6.77
2017-08-23T01:29:47.234Z,6.70
2017-08-23T01:32:14.721Z,6.00
2017-08-23T01:34:42.220Z,7.17
2017-08-23T01:37:09.698Z,6.90
2017-08-23T01:39:37.165Z,7.07
2017-08-23T01:42:04.666Z,6.53
2017-08-23T01:44:32.138Z,6.50
2017-08-23T01:46:59.659Z,7.50
2017-08-23T01:49:28.070Z,7.40
2017-08-23T01:51:56.506Z,8.00
2017-08-23T01:54:23.994Z,8.40
2017-08-23T01:56:51.485Z,7.30
2017-08-23T01:59:18.954Z,7.10
2017-08-23T02:01:46.454Z,7.70
2017-08-23T02:04:13.924Z,7.77
2017-08-23T02:06:41.655Z,7.20
2017-08-23T02:09:09.130Z,8.07
2017-08-23T02:11:38.566Z,8.10
2017-08-23T02:14:06.055Z,8.17
2017-08-23T02:16:33.559Z,8.80
2017-08-23T02:19:01.047Z,8.80
2017-08-23T02:21:28.550Z,8.10
2017-08-23T02:23:56.027Z,8.83
2017-08-23T02:26:23.512Z,8.00
2017-08-23T02:28:51.010Z,7.93
2017-08-23T02:31:18.493Z,8.90
2017-08-23T02:33:46.002Z,9.03
2017-08-23T02:36:13.482Z,9.10
2017-08-23T02:38:41.004Z,8.87
2017-08-23T02:41:08.506Z,8.17
2017-08-23T02:43:35.978Z,9.07
2017-08-23T02:46:03.490Z,8.67
2017-08-23T02:48:30.971Z,9.27
2017-08-23T02:51:00.275Z,9.13
2017-08-23T02:53:27.758Z,9.80
2017-08-23T02:55:55.254Z,8.83
2017-08-23T02:58:23.774Z,9.23
2017-08-23T03:00:51.300Z,8.93
2017-08-23T03:03:18.794Z,9.10
2017-08-23T03:05:46.280Z,9.93
2017-08-23T03:08:14.733Z,8.67
2017-08-23T03:10:42.235Z,9.50
2017-08-23T03:13:09.734Z,9.97
2017-08-23T03:15:37.242Z,9.73
2017-08-23T03:18:04.736Z,10.00
2017-08-23T03:20:32.218Z,9.60
2017-08-23T03:22:59.722Z,9.70
2017-08-23T03:25:27.216Z,10.40
2017-08-23T03:27:54.731Z,10.50
2017-08-23T03:30:22.211Z,10.70
2017-08-23T03:32:49.722Z,10.27
2017-08-23T03:35:17.211Z,10.40
2017-08-23T03:37:44.722Z,10.97
2017-08-23T03:40:12.214Z,9.73
2017-08-23T03:42:39.717Z,10.33
2017-08-23T03:45:07.212Z,11.02
2017-08-23T03:47:34.718Z,11.93
2017-08-23T03:50:02.206Z,11.30
2017-08-23T03:52:32.650Z,11.57
2017-08-23T03:55:00.138Z,11.30
2017-08-23T03:57:27.658Z,10.70
2017-08-23T03:59:55.157Z,10.90
2017-08-23T04:02:22.660Z,12.10
2017-08-23T04:04:50.161Z,11.50
2017-08-23T04:07:17.651Z,11.30
2017-08-23T04:09:45.162Z,10.60
2017-08-23T04:12:12.658Z,12.23
2017-08-23T04:14:40.194Z,10.60
2017-08-23T04:17:09.621Z,10.40
2017-08-23T04:19:37.118Z,10.85
2017-08-23T04:22:04.642Z,11.60
2017-08-23T04:24:33.070Z,10.67
2017-08-23T04:27:00.587Z,10.73
2017-08-23T04:29:28.075Z,10.07
2017-08-23T04:31:55.586Z,10.03
2017-08-23T04:34:23.086Z,10.03
2017-08-23T04:36:50.617Z,10.70
2017-08-23T04:39:18.126Z,10.30
2017-08-23T04:41:45.629Z,11.03
2017-08-23T04:44:13.130Z,10.80
2017-08-23T04:46:40.668Z,10.87
2017-08-23T04:49:08.222Z,10.90
2017-08-23T04:51:37.666Z,9.10
2017-08-23T04:54:05.146Z,9.90
2017-08-23T04:56:32.659Z,9.83
2017-08-23T04:59:00.143Z,10.27
2017-08-23T05:01:29.585Z,12.80
2017-08-23T05:03:57.114Z,11.17
2017-08-23T05:06:24.613Z,10.43
2017-08-23T05:08:53.038Z,10.57
2017-08-23T05:11:20.537Z,12.13
2017-08-23T05:13:48.022Z,14.40
2017-08-23T05:16:15.531Z,20.60
2017-08-23T05:18:43.006Z,18.70
2017-08-23T05:21:10.521Z,11.20
2017-08-23T05:23:38.034Z,10.97
2017-08-23T05:26:06.484Z,10.60
2017-08-23T05:28:34.016Z,10.67
2017-08-23T05:31:01.507Z,10.80
2017-08-23T05:33:29.022Z,13.00
2017-08-23T05:35:56.595Z,12.03
2017-08-23T05:38:24.095Z,12.70
2017-08-23T05:40:51.607Z,15.33
2017-08-23T05:43:19.103Z,12.03
2017-08-23T05:45:46.608Z,11.60
2017-08-23T05:48:14.093Z,10.90
2017-08-23T05:50:41.590Z,10.90
2017-08-23T05:53:09.074Z,11.00
2017-08-23T05:55:36.564Z,10.77
2017-08-23T05:58:04.067Z,10.13
2017-08-23T06:00:31.574Z,9.53
2017-08-23T06:02:59.059Z,10.13
2017-08-23T06:05:26.566Z,10.00
2017-08-23T06:07:54.067Z,10.90
2017-08-23T06:10:21.552Z,9.77
2017-08-23T06:12:49.050Z,9.73
2017-08-23T06:15:18.555Z,9.90
2017-08-23T06:17:46.054Z,9.97
2017-08-23T06:20:13.544Z,9.87
2017-08-23T06:22:41.038Z,10.50
2017-08-23T06:25:08.563Z,9.80
2017-08-23T06:27:36.062Z,10.70
2017-08-23T06:30:03.567Z,9.57
2017-08-23T06:32:31.067Z,9.80
2017-08-23T06:34:58.570Z,9.23
2017-08-23T06:37:26.998Z,10.00
2017-08-23T06:39:54.486Z,8.65
2017-08-23T06:42:21.983Z,9.30
2017-08-23T06:44:49.486Z,9.83
2017-08-23T06:47:16.997Z,9.57
2017-08-23T06:49:45.422Z,9.20
2017-08-23T06:52:12.918Z,10.00
2017-08-23T06:54:40.425Z,8.90
2017-08-23T06:57:07.920Z,9.90
2017-08-23T06:59:35.431Z,9.50
2017-08-23T07:02:03.863Z,8.90
2017-08-23T07:04:31.378Z,10.50
2017-08-23T07:06:58.850Z,9.67
2017-08-23T07:09:26.339Z,8.63
2017-08-23T07:11:53.858Z,10.23
2017-08-23T07:14:21.364Z,9.83
2017-08-23T07:16:48.854Z,9.10
2017-08-23T07:19:16.359Z,9.57
2017-08-23T07:21:43.842Z,9.10
2017-08-23T07:24:11.349Z,9.97
2017-08-23T07:26:38.826Z,8.87
2017-08-23T07:29:06.340Z,8.73
2017-08-23T07:31:34.778Z,9.10
2017-08-23T07:34:02.302Z,8.80
2017-08-23T07:36:29.787Z,8.37
2017-08-23T07:38:57.266Z,8.43
2017-08-23T07:41:25.718Z,8.80
2017-08-23T07:43:53.202Z,8.30
2017-08-23T07:46:20.707Z,9.23
2017-08-23T07:48:48.190Z,8.87
2017-08-23T07:51:15.709Z,8.20
2017-08-23T07:53:43.243Z,9.87
2017-08-23T07:56:11.699Z,8.67
2017-08-23T07:58:40.154Z,8.70
2017-08-23T08:01:07.664Z,10.33
2017-08-23T08:03:35.171Z,8.77
2017-08-23T08:06:02.650Z,7.80
2017-08-23T08:08:30.146Z,8.90
2017-08-23T08:10:57.654Z,8.20
2017-08-23T08:13:25.139Z,7.80
2017-08-23T08:15:52.651Z,7.97
2017-08-23T08:18:20.152Z,8.27
2017-08-23T08:20:47.666Z,8.50
2017-08-23T08:23:16.099Z,7.50
2017-08-23T08:25:43.606Z,7.77
2017-08-23T08:28:11.102Z,7.80
2017-08-23T08:30:38.630Z,8.60
2017-08-23T08:33:06.122Z,7.90
2017-08-23T08:35:33.623Z,7.97
2017-08-23T08:38:01.120Z,7.17
2017-08-23T08:40:28.638Z,7.67
2017-08-23T08:42:56.151Z,6.77
2017-08-23T08:45:23.646Z,7.47
2017-08-23T08:47:52.097Z,6.80
2017-08-23T08:50:19.606Z,6.70
2017-08-23T08:52:47.095Z,6.13
2017-08-23T08:55:14.606Z,7.40
2017-08-23T08:57:42.094Z,6.30
2017-08-23T09:00:11.546Z,7.20
2017-08-23T09:02:39.046Z,5.97
2017-08-23T09:05:06.555Z,6.27
2017-08-23T09:07:34.059Z,6.20
2017-08-23T09:10:02.499Z,6.93
2017-08-23T09:12:30.322Z,6.57
2017-08-23T09:14:57.812Z,6.43
2017-08-23T09:17:25.322Z,6.27
2017-08-23T09:19:52.817Z,7.43
2017-08-23T09:22:20.310Z,5.80
2017-08-23T09:24:47.806Z,7.20
2017-08-23T09:27:15.298Z,6.23
2017-08-23T09:29:42.831Z,7.00
2017-08-23T09:32:10.339Z,6.20
2017-08-23T09:34:37.848Z,6.13
2017-08-23T09:37:05.330Z,6.70
2017-08-23T09:39:32.826Z,6.07
2017-08-23T09:42:00.311Z,5.00
2017-08-23T09:44:27.825Z,5.40
2017-08-23T09:46:56.206Z,5.40
2017-08-23T09:49:23.716Z,6.03
2017-08-23T09:51:51.207Z,6.27
2017-08-23T09:54:19.629Z,5.37
2017-08-23T09:56:47.118Z,5.50
2017-08-23T09:59:14.624Z,5.70
2017-08-23T10:01:42.118Z,4.77
2017-08-23T10:04:09.595Z,5.27
2017-08-23T10:06:37.093Z,4.97
2017-08-23T10:09:04.650Z,4.97
2017-08-23T10:11:32.172Z,4.80
2017-08-23T10:13:59.658Z,4.90
2017-08-23T10:16:27.172Z,5.00
2017-08-23T10:18:54.659Z,4.90
2017-08-23T10:21:22.152Z,4.43
2017-08-23T10:23:49.648Z,5.07
2017-08-23T10:26:17.156Z,4.60
2017-08-23T10:28:44.704Z,4.53
2017-08-23T10:31:13.090Z,4.27
2017-08-23T10:33:40.607Z,4.00
2017-08-23T10:36:08.115Z,4.33
2017-08-23T10:38:36.503Z,4.47
2017-08-23T10:41:03.991Z,4.70
2017-08-23T10:43:31.496Z,4.70
2017-08-23T10:45:58.979Z,3.50
2017-08-23T10:48:26.483Z,4.27
2017-08-23T10:50:53.970Z,4.40
2017-08-23T10:53:23.422Z,4.40
2017-08-23T10:55:50.910Z,4.87
2017-08-23T10:58:18.409Z,5.20
2017-08-23T11:00:46.843Z,4.20
2017-08-23T11:03:14.330Z,4.40
2017-08-23T11:05:41.844Z,5.30
2017-08-23T11:08:09.326Z,4.00
2017-08-23T11:10:36.826Z,4.07
2017-08-23T11:13:04.316Z,3.73
2017-08-23T11:15:31.831Z,4.73
2017-08-23T11:18:00.276Z,4.10
2017-08-23T11:20:27.763Z,4.20
2017-08-23T11:22:56.202Z,4.90
2017-08-23T11:25:23.687Z,3.57
2017-08-23T11:27:51.195Z,3.80
2017-08-23T11:30:18.675Z,3.90
2017-08-23T11:32:46.174Z,4.00
2017-08-23T11:35:13.664Z,4.40
2017-08-23T11:37:43.097Z,3.53
2017-08-23T11:40:10.594Z,3.90
2017-08-23T11:42:38.130Z,4.10
2017-08-23T11:45:05.626Z,3.83
2017-08-23T11:47:33.142Z,4.30
2017-08-23T11:50:00.639Z,3.93
2017-08-23T11:52:28.146Z,4.20
2017-08-23T11:54:55.643Z,2.90
2017-08-23T11:57:23.162Z,3.93
2017-08-23T11:59:50.666Z,3.50
2017-08-23T12:02:18.214Z,3.60
2017-08-23T12:04:45.682Z,3.50
2017-08-23T12:07:13.167Z,3.43
2017-08-23T12:09:42.594Z,3.37
2017-08-23T12:12:10.078Z,2.87
2017-08-23T12:14:37.702Z,3.40
2017-08-23T12:17:05.191Z,3.13
2017-08-23T12:19:32.682Z,3.27
2017-08-23T12:22:01.139Z,3.60
2017-08-23T12:24:28.635Z,3.10
2017-08-23T12:26:56.164Z,3.27
2017-08-23T12:29:23.691Z,3.37
2017-08-23T12:31:51.174Z,3.70
2017-08-23T12:34:18.677Z,3.40
2017-08-23T12:36:46.169Z,3.50
2017-08-23T12:39:13.660Z,3.90
2017-08-23T12:41:41.146Z,3.30
2017-08-23T12:44:08.658Z,2.83
2017-08-23T12:46:36.155Z,3.10
2017-08-23T12:49:04.673Z,2.70
2017-08-23T12:51:32.167Z,3.07
2017-08-23T12:53:59.659Z,2.97
2017-08-23T12:56:27.183Z,2.93
2017-08-23T12:58:54.672Z,3.10
2017-08-23T13:01:22.191Z,3.83
2017-08-23T13:03:49.701Z,2.83
2017-08-23T13:06:17.195Z,2.43
2017-08-23T13:08:44.711Z,2.90
2017-08-23T13:11:13.094Z,2.83
2017-08-23T13:13:40.603Z,3.07
2017-08-23T13:16:08.102Z,2.97
2017-08-23T13:18:35.607Z,3.00
2017-08-23T13:21:03.082Z,2.80
2017-08-23T13:23:30.603Z,3.10
2017-08-23T13:25:58.102Z,3.40
2017-08-23T13:28:25.616Z,2.63
2017-08-23T13:30:53.471Z,3.23
2017-08-23T13:33:20.971Z,3.00
2017-08-23T13:35:48.455Z,3.30
2017-08-23T13:38:15.963Z,3.10
2017-08-23T13:40:44.378Z,2.97
2017-08-23T13:43:11.870Z,3.20
2017-08-23T13:45:39.362Z,3.30
2017-08-23T13:48:06.844Z,3.10
2017-08-23T13:50:34.347Z,3.53
2017-08-23T13:53:01.838Z,3.43
2017-08-23T13:55:29.354Z,3.00
2017-08-23T13:57:56.859Z,3.20
2017-08-23T14:00:24.349Z,4.00
2017-08-23T14:02:51.847Z,3.27
2017-08-23T14:05:19.348Z,3.47
2017-08-23T14:07:46.867Z,3.60
2017-08-23T14:10:15.349Z,3.90
2017-08-23T14:12:42.879Z,3.73
2017-08-23T14:15:10.434Z,3.00
2017-08-23T14:17:37.947Z,3.30
2017-08-23T14:20:05.433Z,3.63
2017-08-23T14:22:32.930Z,3.30
2017-08-23T14:25:00.422Z,3.80
2017-08-23T14:27:27.922Z,3.10
2017-08-23T14:29:55.399Z,3.23
2017-08-23T14:32:22.911Z,3.40
2017-08-23T14:34:50.500Z,3.20
2017-08-23T14:37:18.067Z,3.53
2017-08-23T14:39:45.543Z,3.40
2017-08-23T14:42:14.965Z,3.47
2017-08-23T14:44:42.483Z,3.23
2017-08-23T14:47:09.977Z,3.27
2017-08-23T14:49:37.451Z,3.70
2017-08-23T14:52:05.847Z,3.57
2017-08-23T14:54:33.345Z,3.30
2017-08-23T14:57:00.835Z,3.50
2017-08-23T14:59:29.298Z,3.47
2017-08-23T15:01:56.804Z,3.33
2017-08-23T15:04:24.294Z,4.60
2017-08-23T15:06:51.795Z,3.40
2017-08-23T15:09:21.230Z,3.40
2017-08-23T15:11:48.714Z,2.90
2017-08-23T15:14:16.230Z,2.47
2017-08-23T15:16:43.747Z,3.90
2017-08-23T15:19:11.239Z,4.00
2017-08-23T15:21:39.749Z,3.53
2017-08-23T15:24:07.234Z,3.27
2017-08-23T15:26:36.254Z,3.50
2017-08-23T15:29:03.749Z,3.30
2017-08-23T15:31:31.246Z,4.00
2017-08-23T15:33:58.740Z,3.37
2017-08-23T15:36:28.205Z,3.40
2017-08-23T15:38:55.784Z,3.63
2017-08-23T15:41:23.290Z,3.87
2017-08-23T15:43:50.798Z,3.50
2017-08-23T15:46:18.269Z,3.27
2017-08-23T15:48:45.750Z,5.80
2017-08-23T15:51:15.197Z,5.47
2017-08-23T15:53:42.703Z,5.20
2017-08-23T15:56:10.229Z,3.97
2017-08-23T15:58:37.715Z,3.23
2017-08-23T16:01:05.222Z,3.60
2017-08-23T16:03:32.712Z,4.17
2017-08-23T16:06:00.202Z,3.73
2017-08-23T16:08:29.674Z,3.17
2017-08-23T16:10:57.176Z,3.80
2017-08-23T16:13:24.655Z,3.70
2017-08-23T16:15:52.192Z,4.40
2017-08-23T16:18:19.714Z,3.50
2017-08-23T16:20:47.305Z,4.30
2017-08-23T16:23:14.776Z,3.43
2017-08-23T16:25:42.278Z,3.87
2017-08-23T16:28:09.795Z,3.43
2017-08-23T16:30:37.316Z,3.63
2017-08-23T16:33:04.794Z,3.63
2017-08-23T16:35:32.287Z,3.70
2017-08-23T16:37:59.785Z,4.00
2017-08-23T16:40:28.204Z,3.47
2017-08-23T16:42:55.699Z,4.40
2017-08-23T16:45:23.207Z,3.90
2017-08-23T16:47:50.689Z,3.30
2017-08-23T16:50:20.158Z,4.13
2017-08-23T16:52:47.651Z,3.63
2017-08-23T16:55:15.183Z,3.90
2017-08-23T16:57:42.721Z,3.63
2017-08-23T17:00:12.139Z,4.10
2017-08-23T17:02:39.626Z,4.13
2017-08-23T17:05:07.107Z,4.20
2017-08-23T17:07:34.624Z,4.20
2017-08-23T17:10:02.099Z,4.47
2017-08-23T17:12:29.599Z,4.37
2017-08-23T17:14:57.110Z,3.57
2017-08-23T17:17:24.607Z,3.90
2017-08-23T17:19:52.107Z,4.10
2017-08-23T17:22:20.544Z,3.73
2017-08-23T17:24:49.019Z,3.70
2017-08-23T17:27:16.512Z,3.63
2017-08-23T17:29:45.996Z,4.60
2017-08-23T17:32:13.658Z,4.20
2017-08-23T17:34:41.193Z,3.83
2017-08-23T17:37:08.699Z,3.40
2017-08-23T17:39:36.252Z,3.97
2017-08-23T17:42:05.679Z,3.43
2017-08-23T17:44:33.307Z,3.53
2017-08-23T17:47:01.807Z,3.87
2017-08-23T17:49:29.303Z,3.83
2017-08-23T17:51:56.818Z,4.27
2017-08-23T17:54:24.311Z,3.33
2017-08-23T17:56:51.802Z,3.73
2017-08-23T17:59:20.239Z,3.87
2017-08-23T18:01:47.783Z,4.63
2017-08-23T18:04:15.291Z,4.70
2017-08-23T18:06:42.790Z,3.90
2017-08-23T18:09:10.313Z,4.40
2017-08-23T18:11:37.851Z,4.20
2017-08-23T18:14:05.330Z,3.93
2017-08-23T18:16:32.841Z,4.50
2017-08-23T18:19:00.322Z,4.80
2017-08-23T18:21:27.795Z,6.60
2017-08-23T18:23:56.171Z,8.07
2017-08-23T18:26:24.616Z,7.60
2017-08-23T18:28:52.114Z,7.50
2017-08-23T18:31:19.598Z,7.20
2017-08-23T18:33:47.095Z,7.17
2017-08-23T18:36:14.679Z,6.17
2017-08-23T18:38:42.155Z,5.80
2017-08-23T18:41:09.670Z,5.40
2017-08-23T18:43:38.130Z,5.80
2017-08-23T18:46:05.625Z,4.93
2017-08-23T18:48:33.111Z,5.87
2017-08-23T18:51:00.610Z,5.50
2017-08-23T18:53:28.235Z,5.73
2017-08-23T18:55:55.796Z,6.23
2017-08-23T18:58:23.316Z,5.50
2017-08-23T19:00:52.810Z,6.10
2017-08-23T19:03:20.299Z,6.77
2017-08-23T19:05:47.818Z,5.70
2017-08-23T19:08:15.329Z,6.03
2017-08-23T19:10:42.871Z,6.50
2017-08-23T19:13:10.347Z,6.70
2017-08-23T19:15:37.855Z,6.63
2017-08-23T19:18:05.329Z,6.27
2017-08-23T19:20:34.793Z,6.90
2017-08-23T19:23:02.283Z,6.57
2017-08-23T19:25:29.774Z,6.23
2017-08-23T19:27:57.287Z,7.27
2017-08-23T19:30:24.771Z,7.37
2017-08-23T19:32:52.271Z,7.00
2017-08-23T19:35:19.777Z,6.27
2017-08-23T19:37:47.280Z,6.93
2017-08-23T19:40:15.043Z,7.43
2017-08-23T19:42:42.646Z,9.17
2017-08-23T19:45:10.192Z,8.43
2017-08-23T19:47:37.751Z,7.40
2017-08-23T19:50:07.280Z,7.73
2017-08-23T19:52:34.823Z,7.50
2017-08-23T19:55:02.344Z,7.23
2017-08-23T19:57:29.898Z,7.03
2017-08-23T19:59:57.447Z,7.07
2017-08-23T20:02:25.005Z,7.40
2017-08-23T20:04:52.598Z,6.63
2017-08-23T20:07:20.208Z,7.30
2017-08-23T20:09:47.854Z,8.10
2017-08-23T20:12:15.473Z,7.30
2017-08-23T20:14:43.120Z,7.60
2017-08-23T20:17:10.691Z,7.97
2017-08-23T20:19:38.298Z,7.07
2017-08-23T20:22:05.874Z,7.17
2017-08-23T20:24:33.413Z,8.20
2017-08-23T20:27:01.899Z,7.73
2017-08-23T20:29:29.455Z,7.10
2017-08-23T20:31:56.992Z,7.93
2017-08-23T20:34:24.548Z,7.30
2017-08-23T20:36:52.074Z,7.40
2017-08-23T20:39:19.697Z,7.90
2017-08-23T20:41:47.245Z,7.50
2017-08-23T20:44:14.834Z,7.50
2017-08-23T20:46:42.458Z,8.57
2017-08-23T20:49:10.280Z,7.90
2017-08-23T20:54:12.825Z,8.30
2017-08-23T20:56:40.376Z,7.60
2017-08-23T20:59:07.947Z,7.63
2017-08-23T21:01:35.505Z,7.40
2017-08-23T21:04:03.043Z,7.93
2017-08-23T21:06:30.647Z,7.73
2017-08-23T21:08:58.191Z,7.83
2017-08-23T21:11:25.794Z,8.00
2017-08-23T21:13:54.358Z,8.50
2017-08-23T21:16:23.963Z,8.90
2017-08-23T21:18:52.467Z,8.17
2017-08-23T21:21:20.013Z,8.77
2017-08-23T21:23:47.592Z,8.20
2017-08-23T21:26:15.159Z,9.50
2017-08-23T21:28:42.720Z,8.77
2017-08-23T21:31:10.288Z,7.83
2017-08-23T21:33:37.869Z,8.77
2017-08-23T21:36:05.739Z,8.60
2017-08-23T21:38:33.292Z,8.83
2017-08-23T21:41:01.843Z,8.20
2017-08-23T21:43:29.368Z,8.53
2017-08-23T21:45:56.976Z,9.43
2017-08-23T21:48:24.520Z,9.77
2017-08-23T21:50:52.051Z,9.87
2017-08-23T21:53:19.626Z,9.23
2017-08-23T21:58:21.074Z,8.53
2017-08-23T22:00:48.677Z,8.70
2017-08-23T22:03:16.367Z,9.47
2017-08-23T22:05:43.922Z,9.00
2017-08-23T22:08:11.469Z,10.07
2017-08-23T22:10:39.024Z,9.47
2017-08-23T22:13:06.639Z,9.10
2017-08-23T22:15:34.217Z,9.80
2017-08-23T22:18:01.765Z,8.87
2017-08-23T22:20:31.276Z,8.13
2017-08-23T22:22:58.793Z,8.97
2017-08-23T22:25:26.313Z,9.20
2017-08-23T22:27:53.904Z,9.77
2017-08-23T22:30:21.471Z,9.60
2017-08-23T22:32:49.009Z,8.33
2017-08-23T22:35:16.558Z,10.33
2017-08-23T22:37:44.085Z,9.53
2017-08-23T22:40:11.660Z,8.47
2017-08-23T22:42:39.184Z,8.67
2017-08-23T22:45:06.806Z,9.47
2017-08-23T22:47:34.390Z,8.53
2017-08-23T22:50:01.928Z,7.53
2017-08-23T22:52:29.442Z,8.60
2017-08-23T22:54:57.047Z,8.37
2017-08-23T22:57:24.574Z,8.90
2017-08-23T22:59:52.067Z,8.50
2017-08-23T23:02:19.580Z,7.57
2017-08-23T23:04:47.063Z,8.40
2017-08-23T23:07:14.570Z,9.03
2017-08-23T23:09:42.062Z,9.17
2017-08-23T23:12:09.770Z,9.40
2017-08-23T23:14:37.358Z,9.07
2017-08-23T23:17:04.859Z,8.97
2017-08-23T23:19:33.290Z,9.57
2017-08-23T23:22:00.791Z,8.83
2017-08-23T23:24:28.273Z,9.20
2017-08-23T23:26:55.793Z,10.00
2017-08-23T23:29:23.282Z,9.90
2017-08-23T23:31:50.790Z,10.13
2017-08-23T23:34:18.274Z,9.20
2017-08-23T23:36:45.778Z,9.50
2017-08-23T23:39:13.262Z,8.80
2017-08-23T23:41:40.780Z,9.70
2017-08-23T23:44:08.323Z,9.27
2017-08-23T23:46:35.810Z,9.90
2017-08-23T23:49:03.311Z,9.97
2017-08-23T23:51:30.794Z,10.80
2017-08-23T23:53:58.278Z,9.40
2017-08-23T23:56:25.798Z,10.07
2017-08-23T23:58:53.295Z,10.10
